Time;durP1;ratioP1;P1;durP2;ratioP2;P2;SDS_P1;SDS_P2;PMS_P1;PMS_P2;Temp;Humidity;BMP_temperature;BMP_pressure;BME280_temperature;BME280_humidity;BME280_pressure;Samples;Min_cycle;Max_cycle;Signal;HPM_P1;HPM_P2
2023/04/21 00:00:33;;;;;;;22.73;17.23;;;;;;;;;;4864727;29;20034;-93
2023/04/21 00:02:59;;;;;;;20.42;16.25;;;;;;;;;;4874830;29;20432;-94
2023/04/21 00:05:25;;;;;;;19.98;15.77;;;;;;;;;;4860364;29;20038;-93
2023/04/21 00:07:52;;;;;;;24.60;17.48;;;;;;;;;;4879525;29;20037;-89
2023/04/21 00:10:18;;;;;;;23.27;18.27;;;;;;;;;;4883354;29;20026;-92
2023/04/21 00:12:44;;;;;;;20.15;17.02;;;;;;;;;;4859353;29;20484;-89
2023/04/21 00:15:11;;;;;;;22.98;17.05;;;;;;;;;;4858086;29;20029;-93
2023/04/21 00:17:38;;;;;;;24.30;17.08;;;;;;;;;;4858854;29;20030;-93
2023/04/21 00:20:05;;;;;;;22.17;16.92;;;;;;;;;;4866412;29;20068;-88
2023/04/21 00:22:32;;;;;;;23.67;16.38;;;;;;;;;;4866189;29;20185;-93
2023/04/21 00:24:58;;;;;;;23.40;16.15;;;;;;;;;;4858575;29;20095;-87
2023/04/21 00:27:24;;;;;;;21.27;15.90;;;;;;;;;;4859477;29;20049;-89
2023/04/21 00:29:50;;;;;;;20.83;15.95;;;;;;;;;;4857909;29;20118;-87
2023/04/21 00:32:16;;;;;;;20.42;14.77;;;;;;;;;;4866079;29;20037;-88
2023/04/21 00:34:42;;;;;;;18.23;14.25;;;;;;;;;;4865773;29;20034;-92
2023/04/21 00:37:14;;;;;;;18.23;14.35;;;;;;;;;;4858143;29;20029;-87
2023/04/21 00:39:40;;;;;;;19.65;15.15;;;;;;;;;;4857934;29;20034;-92
2023/04/21 00:42:06;;;;;;;20.80;15.80;;;;;;;;;;4865877;29;20030;-89
2023/04/21 00:44:33;;;;;;;21.25;16.35;;;;;;;;;;4865468;29;20038;-92
2023/04/21 00:46:59;;;;;;;21.60;16.35;;;;;;;;;;4865803;29;20429;-88
2023/04/21 00:49:25;;;;;;;19.38;15.52;;;;;;;;;;4858444;29;20036;-88
2023/04/21 00:51:55;;;;;;;21.45;16.77;;;;;;;;;;4865126;29;20041;-92
2023/04/21 00:54:24;;;;;;;20.85;17.00;;;;;;;;;;4858338;29;20038;-94
2023/04/21 00:56:51;;;;;;;26.27;17.65;;;;;;;;;;4869421;29;20051;-92
2023/04/21 00:59:17;;;;;;;22.17;17.77;;;;;;;;;;4857859;29;20132;-87
2023/04/21 01:01:46;;;;;;;23.35;17.77;;;;;;;;;;4865654;29;20025;-93
2023/04/21 01:04:12;;;;;;;24.17;19.15;;;;;;;;;;4859717;29;20127;-88
2023/04/21 01:06:38;;;;;;;21.48;17.38;;;;;;;;;;4865730;29;20112;-91
2023/04/21 01:09:04;;;;;;;23.15;17.88;;;;;;;;;;4865595;29;20045;-92
2023/04/21 01:11:31;;;;;;;23.27;16.88;;;;;;;;;;4858100;29;20041;-89
2023/04/21 01:13:57;;;;;;;21.48;16.45;;;;;;;;;;4865912;29;20021;-88
2023/04/21 01:16:26;;;;;;;21.75;16.40;;;;;;;;;;4865606;29;20483;-92
2023/04/21 01:18:52;;;;;;;20.65;15.73;;;;;;;;;;4857671;29;20037;-89
2023/04/21 01:21:20;;;;;;;20.27;15.82;;;;;;;;;;4857801;29;20471;-91
2023/04/21 01:23:49;;;;;;;21.30;16.45;;;;;;;;;;4862758;29;20026;-94
2023/04/21 01:37:13;;;;;;;19.17;15.10;;;;;;;;;;5072948;23;20072;-93
2023/04/21 01:39:53;;;;;;;20.90;16.10;;;;;;;;;;4882291;29;20099;-92
2023/04/21 01:42:20;;;;;;;21.35;15.48;;;;;;;;;;4912744;29;20032;-91
2023/04/21 01:44:53;;;;;;;21.52;16.08;;;;;;;;;;4905929;29;20033;-96
2023/04/21 01:47:20;;;;;;;21.55;15.85;;;;;;;;;;5001385;23;20057;-95
2023/04/21 01:49:46;;;;;;;21.83;14.90;;;;;;;;;;4895751;29;20029;-91
2023/04/21 01:52:13;;;;;;;21.75;15.38;;;;;;;;;;4880031;29;20132;-93
2023/04/21 01:54:39;;;;;;;21.38;15.25;;;;;;;;;;4864507;29;20098;-95
2023/04/21 01:57:09;;;;;;;22.98;16.25;;;;;;;;;;4895818;29;20036;-91
2023/04/21 01:59:35;;;;;;;23.05;16.60;;;;;;;;;;4895720;29;20124;-90
2023/04/21 02:02:01;;;;;;;24.63;16.20;;;;;;;;;;4895463;29;20595;-96
2023/04/21 02:04:29;;;;;;;23.25;16.17;;;;;;;;;;4880007;29;20100;-93
2023/04/21 02:06:55;;;;;;;23.92;14.98;;;;;;;;;;4879608;29;20558;-95
2023/04/21 02:09:24;;;;;;;19.52;14.50;;;;;;;;;;4895635;29;20089;-95
2023/04/21 02:11:53;;;;;;;26.42;16.13;;;;;;;;;;4879754;29;20471;-94
2023/04/21 02:14:20;;;;;;;24.20;16.38;;;;;;;;;;4879012;29;20033;-92
2023/04/21 02:16:46;;;;;;;23.95;15.38;;;;;;;;;;4894980;29;20041;-91
2023/04/21 02:19:12;;;;;;;22.20;14.93;;;;;;;;;;4895070;29;20037;-96
2023/04/21 02:21:38;;;;;;;20.42;15.00;;;;;;;;;;4894879;29;20043;-92
2023/04/21 02:24:08;;;;;;;18.85;13.75;;;;;;;;;;4879742;29;20057;-95
2023/04/21 02:26:34;;;;;;;19.80;13.90;;;;;;;;;;4879392;29;20108;-92
2023/04/21 02:29:01;;;;;;;21.33;13.93;;;;;;;;;;4880393;29;20044;-90
2023/04/21 02:31:29;;;;;;;22.33;13.00;;;;;;;;;;4895143;29;20088;-93
2023/04/21 02:33:56;;;;;;;19.65;14.05;;;;;;;;;;4874209;29;20041;-90
2023/04/21 02:36:22;;;;;;;18.88;12.77;;;;;;;;;;4879817;29;20575;-89
2023/04/21 02:38:48;;;;;;;16.50;12.40;;;;;;;;;;4879303;29;20193;-96
2023/04/21 02:41:17;;;;;;;20.55;11.68;;;;;;;;;;4894901;29;20038;-93
2023/04/21 02:43:44;;;;;;;17.23;11.05;;;;;;;;;;4878966;29;20088;-92
2023/04/21 02:46:10;;;;;;;23.48;11.48;;;;;;;;;;4894152;29;20036;-92
2023/04/21 02:48:39;;;;;;;14.05;9.55;;;;;;;;;;4894741;29;20140;-95
2023/04/21 02:51:10;;;;;;;15.93;9.05;;;;;;;;;;4894769;29;20036;-94
2023/04/21 02:53:37;;;;;;;19.17;9.25;;;;;;;;;;4879260;29;20077;-95
2023/04/21 02:56:03;;;;;;;19.23;9.35;;;;;;;;;;4878728;29;20483;-95
2023/04/21 02:58:30;;;;;;;17.60;9.57;;;;;;;;;;4884025;29;20494;-94
2023/04/21 03:00:56;;;;;;;14.90;9.18;;;;;;;;;;4894311;29;20041;-95
2023/04/21 03:03:22;;;;;;;13.13;8.80;;;;;;;;;;4878222;29;20036;-93
2023/04/21 03:05:54;;;;;;;14.93;8.45;;;;;;;;;;4878735;29;20041;-92
2023/04/21 03:08:20;;;;;;;13.05;8.50;;;;;;;;;;4878093;29;20089;-93
2023/04/21 03:10:46;;;;;;;14.93;8.82;;;;;;;;;;4878432;29;20103;-90
2023/04/21 03:13:16;;;;;;;12.90;8.65;;;;;;;;;;4878580;29;20036;-94
2023/04/21 03:15:42;;;;;;;13.90;8.73;;;;;;;;;;4914078;29;20111;-91
2023/04/21 03:18:08;;;;;;;13.88;9.02;;;;;;;;;;4884236;29;20166;-92
2023/04/21 03:20:44;;;;;;;12.45;8.70;;;;;;;;;;4877930;29;20465;-90
2023/04/21 03:23:13;;;;;;;15.52;8.63;;;;;;;;;;4893185;29;20033;-95
2023/04/21 03:25:39;;;;;;;10.20;8.23;;;;;;;;;;4878198;29;20068;-91
2023/04/21 03:28:05;;;;;;;13.13;7.95;;;;;;;;;;4894163;29;20033;-93
2023/04/21 03:30:32;;;;;;;12.38;8.60;;;;;;;;;;4893947;29;20056;-89
2023/04/21 03:32:58;;;;;;;14.00;8.18;;;;;;;;;;4893636;29;20032;-91
2023/04/21 03:35:24;;;;;;;11.68;8.38;;;;;;;;;;4893616;29;20141;-94
2023/04/21 03:37:50;;;;;;;12.10;7.55;;;;;;;;;;4893050;29;20056;-91
2023/04/21 03:40:16;;;;;;;13.27;8.45;;;;;;;;;;4877271;29;20076;-95
2023/04/21 03:42:43;;;;;;;13.25;8.07;;;;;;;;;;4892812;29;20029;-93
2023/04/21 03:45:09;;;;;;;11.93;7.75;;;;;;;;;;4877288;29;20037;-89
2023/04/21 03:47:36;;;;;;;11.23;7.05;;;;;;;;;;4877406;29;20112;-94
2023/04/21 03:50:06;;;;;;;10.73;7.70;;;;;;;;;;4893942;29;20443;-95
2023/04/21 03:52:32;;;;;;;14.70;9.40;;;;;;;;;;4877769;29;20494;-89
2023/04/21 03:54:58;;;;;;;15.60;8.82;;;;;;;;;;4877583;29;20052;-93
2023/04/21 03:57:25;;;;;;;14.63;8.40;;;;;;;;;;4893162;29;20033;-94
2023/04/21 03:59:51;;;;;;;15.32;9.52;;;;;;;;;;4892933;29;20497;-94
2023/04/21 04:02:17;;;;;;;13.68;8.48;;;;;;;;;;4882697;29;20120;-92
2023/04/21 04:04:43;;;;;;;15.30;9.73;;;;;;;;;;4901572;29;20053;-92
2023/04/21 04:15:24;;;;;;;14.63;8.13;;;;;;;;;;4913883;23;20053;-90
2023/04/21 04:17:51;;;;;;;14.45;8.85;;;;;;;;;;4892657;29;20041;-93
2023/04/21 04:20:17;;;;;;;15.07;8.27;;;;;;;;;;4877064;29;20119;-94
2023/04/21 04:22:43;;;;;;;13.23;7.80;;;;;;;;;;4892479;29;20089;-96
2023/04/21 04:25:11;;;;;;;11.95;7.60;;;;;;;;;;4877169;29;20101;-91
2023/04/21 04:27:37;;;;;;;16.58;8.40;;;;;;;;;;4876656;29;20056;-93
2023/04/21 04:30:04;;;;;;;12.40;7.60;;;;;;;;;;4892475;29;20487;-94
2023/04/21 04:32:32;;;;;;;14.52;8.50;;;;;;;;;;4892425;29;20025;-95
2023/04/21 04:38:03;;;;;;;13.98;7.60;;;;;;;;;;4871089;29;20032;-95
2023/04/21 04:40:31;;;;;;;19.25;8.05;;;;;;;;;;4877137;29;20037;-93
2023/04/21 04:43:01;;;;;;;12.98;8.35;;;;;;;;;;4876319;29;20561;-95
2023/04/21 04:45:30;;;;;;;16.42;8.55;;;;;;;;;;4891852;29;20085;-88
2023/04/21 04:47:59;;;;;;;14.70;8.27;;;;;;;;;;4893067;29;20147;-90
2023/04/21 04:50:26;;;;;;;18.92;7.80;;;;;;;;;;4898079;29;20071;-88
2023/04/21 04:52:52;;;;;;;16.05;8.77;;;;;;;;;;4877856;29;20075;-88
2023/04/21 04:55:19;;;;;;;11.98;7.20;;;;;;;;;;4876423;29;20081;-93
2023/04/21 04:57:45;;;;;;;14.55;7.68;;;;;;;;;;4878865;29;20092;-90
2023/04/21 05:00:13;;;;;;;11.82;8.15;;;;;;;;;;4885637;29;20033;-89
2023/04/21 05:05:15;;;;;;;15.10;8.10;;;;;;;;;;4946039;23;20041;-90
2023/04/21 05:07:41;;;;;;;15.23;8.73;;;;;;;;;;4885334;29;20061;-90
2023/04/21 05:10:07;;;;;;;14.55;7.80;;;;;;;;;;4897906;29;20041;-89
2023/04/21 05:12:33;;;;;;;12.57;7.40;;;;;;;;;;4897341;29;20029;-90
2023/04/21 05:15:02;;;;;;;12.80;7.80;;;;;;;;;;4881833;29;20117;-89
2023/04/21 05:17:40;;;;;;;14.40;7.65;;;;;;;;;;4897057;29;20626;-90
2023/04/21 05:20:10;;;;;;;13.55;7.63;;;;;;;;;;4889370;29;20473;-89
2023/04/21 05:22:37;;;;;;;13.07;6.90;;;;;;;;;;4897835;29;20032;-88
2023/04/21 05:25:03;;;;;;;11.52;6.68;;;;;;;;;;4900553;29;20036;-88
2023/04/21 05:27:33;;;;;;;12.38;6.72;;;;;;;;;;4901621;29;20036;-87
2023/04/21 05:29:59;;;;;;;11.88;6.93;;;;;;;;;;4900348;29;20123;-87
2023/04/21 05:32:25;;;;;;;9.80;7.38;;;;;;;;;;4900394;29;20028;-87
2023/04/21 05:34:55;;;;;;;13.15;6.38;;;;;;;;;;4899348;29;20509;-87
2023/04/21 05:37:23;;;;;;;10.90;5.95;;;;;;;;;;4892773;29;20032;-88
2023/04/21 05:39:53;;;;;;;13.43;6.10;;;;;;;;;;4896360;29;20044;-91
2023/04/21 05:42:20;;;;;;;11.35;7.00;;;;;;;;;;4880351;29;20033;-91
2023/04/21 05:44:46;;;;;;;13.15;6.63;;;;;;;;;;4897669;29;20029;-86
2023/04/21 05:47:12;;;;;;;10.88;5.97;;;;;;;;;;4896779;29;20044;-90
2023/04/21 05:49:39;;;;;;;9.77;5.60;;;;;;;;;;4881778;29;20044;-89
2023/04/21 05:52:05;;;;;;;12.45;6.20;;;;;;;;;;4880851;29;20029;-85
2023/04/21 05:54:32;;;;;;;13.63;5.80;;;;;;;;;;4896982;29;20029;-87
2023/04/21 05:56:58;;;;;;;14.13;6.32;;;;;;;;;;4896341;29;20036;-87
2023/04/21 05:59:25;;;;;;;11.63;6.10;;;;;;;;;;4882286;29;20057;-91
2023/04/21 06:01:51;;;;;;;14.20;5.55;;;;;;;;;;4896958;29;20112;-91
2023/04/21 06:04:18;;;;;;;9.43;5.75;;;;;;;;;;4882042;29;20033;-89
2023/04/21 06:06:44;;;;;;;10.20;5.45;;;;;;;;;;4904847;29;20037;-89
2023/04/21 06:09:10;;;;;;;10.35;5.30;;;;;;;;;;4896215;29;20474;-87
2023/04/21 06:11:37;;;;;;;10.90;5.40;;;;;;;;;;4883448;29;20482;-90
2023/04/21 06:14:03;;;;;;;13.13;5.03;;;;;;;;;;4880879;29;20029;-90
2023/04/21 06:16:33;;;;;;;10.98;5.47;;;;;;;;;;4898366;29;20029;-92
2023/04/21 06:19:08;;;;;;;10.90;5.07;;;;;;;;;;4897394;29;20037;-94
2023/04/21 06:24:51;;;;;;;10.73;5.43;;;;;;;;;;4881601;29;20123;-95
2023/04/21 06:27:22;;;;;;;12.50;5.80;;;;;;;;;;4863965;29;20053;-94
2023/04/21 06:29:48;;;;;;;11.35;5.72;;;;;;;;;;4864645;29;20561;-93
2023/04/21 06:35:04;;;;;;;9.48;4.60;;;;;;;;;;4863781;29;20093;-91
2023/04/21 06:43:31;;;;;;;9.80;4.03;;;;;;;;;;4806543;29;20030;-90
2023/04/21 06:45:57;;;;;;;15.30;4.38;;;;;;;;;;4791009;29;20053;-93
2023/04/21 06:54:05;;;;;;;11.55;3.88;;;;;;;;;;5682588;23;20064;-92
2023/04/21 06:59:26;;;;;;;11.50;3.90;;;;;;;;;;4913118;29;20651;-91
2023/04/21 07:01:53;;;;;;;8.30;3.75;;;;;;;;;;4895899;29;20033;-93
2023/04/21 07:04:19;;;;;;;12.00;4.10;;;;;;;;;;4895510;29;20035;-91
2023/04/21 07:06:45;;;;;;;13.25;3.90;;;;;;;;;;4895546;29;20478;-90
2023/04/21 07:09:22;;;;;;;10.95;4.00;;;;;;;;;;4895633;29;20021;-94
2023/04/21 07:11:54;;;;;;;13.02;3.90;;;;;;;;;;4895856;29;20033;-95
2023/04/21 07:14:29;;;;;;;10.82;3.88;;;;;;;;;;4880103;29;20033;-93
2023/04/21 07:16:56;;;;;;;10.23;3.63;;;;;;;;;;4880130;29;20515;-93
2023/04/21 07:19:22;;;;;;;14.15;3.35;;;;;;;;;;4895924;29;20076;-88
2023/04/21 07:24:24;;;;;;;12.38;3.92;;;;;;;;;;5352757;23;20071;-92
2023/04/21 07:26:50;;;;;;;10.57;4.28;;;;;;;;;;4894342;29;20076;-92
2023/04/21 07:32:52;;;;;;;15.13;4.13;;;;;;;;;;4883972;29;20128;-92
2023/04/21 07:38:22;;;;;;;11.15;3.67;;;;;;;;;;5028307;23;20109;-92
2023/04/21 07:47:15;;;;;;;13.98;3.55;;;;;;;;;;4881402;29;20100;-93
2023/04/21 07:49:48;;;;;;;8.63;3.50;;;;;;;;;;4880652;29;20029;-93
2023/04/21 07:52:24;;;;;;;13.40;3.85;;;;;;;;;;4895429;29;20125;-92
2023/04/21 07:54:53;;;;;;;13.48;3.97;;;;;;;;;;4864580;29;20048;-93
2023/04/21 07:57:54;;;;;;;11.02;4.07;;;;;;;;;;4895343;29;20033;-89
2023/04/21 08:00:21;;;;;;;7.88;3.60;;;;;;;;;;4894401;29;20029;-89
2023/04/21 08:02:50;;;;;;;11.80;4.03;;;;;;;;;;4880542;29;20052;-92
2023/04/21 08:05:19;;;;;;;15.27;3.65;;;;;;;;;;4899699;29;20048;-93
2023/04/21 08:07:45;;;;;;;11.18;3.35;;;;;;;;;;4901398;29;20107;-89
2023/04/21 08:10:11;;;;;;;13.77;6.50;;;;;;;;;;4879094;29;20146;-91
2023/04/21 08:12:37;;;;;;;9.70;3.30;;;;;;;;;;4879058;29;20501;-91
2023/04/21 08:15:13;;;;;;;9.77;3.45;;;;;;;;;;4878551;29;20035;-91
2023/04/21 08:17:42;;;;;;;14.00;3.53;;;;;;;;;;4894736;29;20220;-91
2023/04/21 08:20:14;;;;;;;8.82;3.70;;;;;;;;;;4894483;29;20360;-91
2023/04/21 08:22:57;;;;;;;9.02;3.25;;;;;;;;;;4894279;29;20060;-92
2023/04/21 08:25:26;;;;;;;12.30;3.85;;;;;;;;;;4894969;29;20053;-91
2023/04/21 08:31:16;;;;;;;7.60;3.33;;;;;;;;;;4878086;29;20037;-90
2023/04/21 08:33:45;;;;;;;11.45;3.20;;;;;;;;;;4875685;29;20037;-93
2023/04/21 08:45:59;;;;;;;7.53;3.28;;;;;;;;;;4876321;29;20079;-95
2023/04/21 08:54:21;;;;;;;9.13;3.38;;;;;;;;;;4882361;29;20108;-95
2023/04/21 08:57:02;;;;;;;8.10;3.45;;;;;;;;;;4897911;29;20128;-94
2023/04/21 09:02:35;;;;;;;;;;;;;;;;;;4861512;29;20074;-92
2023/04/21 09:05:11;;;;;;;8.57;3.28;;;;;;;;;;4875770;29;19960;-91
2023/04/21 09:07:40;;;;;;;9.13;3.80;;;;;;;;;;4875881;29;20074;-91
2023/04/21 09:10:25;;;;;;;9.57;3.38;;;;;;;;;;4875803;29;20136;-91
2023/04/21 09:13:13;;;;;;;12.65;3.33;;;;;;;;;;4893991;29;20033;-93
2023/04/21 09:15:54;;;;;;;10.23;4.10;;;;;;;;;;4895568;29;20040;-89
2023/04/21 09:18:43;;;;;;;12.13;4.20;;;;;;;;;;4894581;29;20029;-94
2023/04/21 09:21:10;;;;;;;10.65;4.15;;;;;;;;;;4881348;29;20124;-91
2023/04/21 09:23:54;;;;;;;13.95;4.10;;;;;;;;;;4878538;29;20134;-91
2023/04/21 09:32:38;;;;;;;8.63;3.65;;;;;;;;;;4879624;29;20040;-95
2023/04/21 09:35:05;;;;;;;11.73;4.47;;;;;;;;;;4894745;29;20029;-94
2023/04/21 09:37:35;;;;;;;13.52;4.25;;;;;;;;;;4894291;29;20036;-88
2023/04/21 09:40:01;;;;;;;12.13;4.57;;;;;;;;;;4894257;29;20101;-90
2023/04/21 09:42:57;;;;;;;8.80;4.30;;;;;;;;;;4898406;29;20119;-93
2023/04/21 09:45:27;;;;;;;14.85;5.03;;;;;;;;;;4843648;29;20041;-88
2023/04/21 09:47:59;;;;;;;10.13;5.20;;;;;;;;;;4878469;29;20034;-89
2023/04/21 09:50:25;;;;;;;14.55;5.07;;;;;;;;;;4884000;29;20028;-88
2023/04/21 09:52:58;;;;;;;13.25;5.30;;;;;;;;;;4896984;29;20037;-93
2023/04/21 09:55:27;;;;;;;12.65;5.10;;;;;;;;;;4897602;29;20036;-88
2023/04/21 09:57:57;;;;;;;13.98;4.95;;;;;;;;;;4896765;29;20119;-90
2023/04/21 10:00:26;;;;;;;13.40;5.13;;;;;;;;;;4893995;29;20082;-89
2023/04/21 10:02:53;;;;;;;11.63;4.78;;;;;;;;;;4897089;29;20036;-88
2023/04/21 10:05:19;;;;;;;11.55;4.47;;;;;;;;;;4896917;29;20527;-91
2023/04/21 10:07:49;;;;;;;10.60;4.75;;;;;;;;;;4897245;29;20033;-94
2023/04/21 10:10:18;;;;;;;13.02;5.38;;;;;;;;;;4896658;29;20093;-92
2023/04/21 10:12:44;;;;;;;10.57;4.55;;;;;;;;;;4896613;29;20040;-90
2023/04/21 10:15:28;;;;;;;7.93;4.63;;;;;;;;;;4879651;29;20040;-94
2023/04/21 10:18:10;;;;;;;9.88;4.97;;;;;;;;;;4879033;29;20025;-91
2023/04/21 10:20:51;;;;;;;10.68;5.32;;;;;;;;;;4886649;29;20033;-92
2023/04/21 10:23:26;;;;;;;9.68;5.32;;;;;;;;;;4878477;29;20072;-90
2023/04/21 10:25:52;;;;;;;12.70;5.55;;;;;;;;;;4893961;29;20060;-92
2023/04/21 10:28:19;;;;;;;9.13;4.53;;;;;;;;;;4893915;29;20033;-92
2023/04/21 10:34:13;;;;;;;10.10;4.45;;;;;;;;;;4889407;29;20052;-92
2023/04/21 10:36:45;;;;;;;10.35;4.72;;;;;;;;;;4904355;29;20049;-94
2023/04/21 10:39:47;;;;;;;14.32;5.30;;;;;;;;;;4890151;29;20040;-94
2023/04/21 10:42:27;;;;;;;12.43;5.35;;;;;;;;;;4899748;29;20547;-95
2023/04/21 10:44:56;;;;;;;11.57;4.60;;;;;;;;;;4892969;29;20506;-92
2023/04/21 10:47:26;;;;;;;8.50;5.07;;;;;;;;;;4896007;29;20040;-92
2023/04/21 10:49:57;;;;;;;9.65;4.85;;;;;;;;;;4895263;29;20064;-92
2023/04/21 10:52:31;;;;;;;8.55;4.88;;;;;;;;;;4879695;29;20033;-92
2023/04/21 10:55:09;;;;;;;9.95;5.32;;;;;;;;;;4880003;29;20033;-93
2023/04/21 11:06:43;;;;;;;12.15;5.10;;;;;;;;;;5004278;24;20053;-92
2023/04/21 11:09:23;;;;;;;9.75;4.57;;;;;;;;;;4879582;29;20170;-92
2023/04/21 11:11:57;;;;;;;9.40;4.80;;;;;;;;;;4861415;29;20033;-94
2023/04/21 11:14:23;;;;;;;11.40;4.60;;;;;;;;;;4893146;29;20043;-92
2023/04/21 11:16:49;;;;;;;11.30;4.82;;;;;;;;;;4888480;29;20040;-93
2023/04/21 11:19:16;;;;;;;6.78;4.55;;;;;;;;;;4871296;29;20077;-94
2023/04/21 11:21:42;;;;;;;9.65;5.15;;;;;;;;;;4877121;29;20152;-92
2023/04/21 11:24:08;;;;;;;9.57;5.45;;;;;;;;;;4878191;29;20367;-93
2023/04/21 11:26:37;;;;;;;11.18;5.13;;;;;;;;;;4880098;29;20053;-93
2023/04/21 11:29:07;;;;;;;10.82;4.80;;;;;;;;;;4876789;29;20029;-89
2023/04/21 11:31:34;;;;;;;10.85;4.72;;;;;;;;;;4878737;29;20037;-93
2023/04/21 11:34:01;;;;;;;10.95;4.63;;;;;;;;;;4861921;29;20029;-91
2023/04/21 11:36:28;;;;;;;9.43;4.32;;;;;;;;;;4860744;29;20026;-91
2023/04/21 11:38:54;;;;;;;9.02;4.43;;;;;;;;;;4861179;29;20037;-92
2023/04/21 11:41:21;;;;;;;9.60;4.32;;;;;;;;;;4860627;29;20037;-90
2023/04/21 11:43:48;;;;;;;11.85;4.15;;;;;;;;;;4876709;29;20124;-90
2023/04/21 11:46:27;;;;;;;12.95;4.30;;;;;;;;;;4876562;29;20105;-91
2023/04/21 11:49:00;;;;;;;10.57;4.22;;;;;;;;;;4876445;29;20041;-93
2023/04/21 11:51:27;;;;;;;11.55;4.07;;;;;;;;;;4876389;29;20526;-93
2023/04/21 11:53:53;;;;;;;9.65;5.03;;;;;;;;;;4876202;29;20029;-91
2023/04/21 11:56:22;;;;;;;10.18;4.38;;;;;;;;;;4876704;29;20037;-91
2023/04/21 11:58:52;;;;;;;12.25;5.03;;;;;;;;;;4845639;29;20057;-94
2023/04/21 12:04:12;;;;;;;7.78;4.15;;;;;;;;;;5838946;23;20027;-89
2023/04/21 12:09:35;;;;;;;8.70;4.47;;;;;;;;;;5436962;23;20101;-95
2023/04/21 12:12:10;;;;;;;8.93;4.38;;;;;;;;;;4901260;29;20040;-95
2023/04/21 12:14:49;;;;;;;8.93;4.03;;;;;;;;;;4865097;29;20076;-91
2023/04/21 12:17:15;;;;;;;8.25;3.63;;;;;;;;;;4892348;29;20033;-89
2023/04/21 12:19:43;;;;;;;8.65;3.63;;;;;;;;;;4881491;29;20108;-95
2023/04/21 12:22:22;;;;;;;6.50;3.83;;;;;;;;;;4895623;29;20054;-93
2023/04/21 12:24:48;;;;;;;9.75;3.72;;;;;;;;;;4894924;29;20535;-93
2023/04/21 12:27:17;;;;;;;6.60;3.50;;;;;;;;;;4881048;29;20043;-94
2023/04/21 12:29:44;;;;;;;6.82;4.10;;;;;;;;;;4894709;29;20021;-94
2023/04/21 12:32:10;;;;;;;10.57;4.07;;;;;;;;;;4894878;29;20025;-95
2023/04/21 12:34:36;;;;;;;9.23;3.90;;;;;;;;;;4894563;29;20033;-94
2023/04/21 12:37:02;;;;;;;9.23;3.80;;;;;;;;;;4881566;29;20554;-89
2023/04/21 12:39:30;;;;;;;10.82;3.78;;;;;;;;;;4881448;29;20025;-96
2023/04/21 12:42:31;;;;;;;8.32;3.75;;;;;;;;;;4895518;29;20520;-93
2023/04/21 12:44:57;;;;;;;12.43;4.32;;;;;;;;;;4897931;29;20069;-89
2023/04/21 12:47:34;;;;;;;9.93;3.97;;;;;;;;;;4878375;29;20045;-94
2023/04/21 12:50:06;;;;;;;10.52;3.92;;;;;;;;;;4877972;29;20025;-93
2023/04/21 12:52:38;;;;;;;9.10;4.05;;;;;;;;;;4878723;29;20065;-95
2023/04/21 12:55:17;;;;;;;9.77;3.70;;;;;;;;;;4878702;29;20129;-87
2023/04/21 12:57:43;;;;;;;7.53;3.72;;;;;;;;;;4878247;29;20522;-88
2023/04/21 13:00:25;;;;;;;9.05;3.85;;;;;;;;;;4887341;29;20355;-93
2023/04/21 13:02:57;;;;;;;9.18;4.30;;;;;;;;;;4891589;29;20360;-93
2023/04/21 13:05:23;;;;;;;7.68;3.88;;;;;;;;;;4884265;29;20033;-94
2023/04/21 13:07:50;;;;;;;8.50;4.40;;;;;;;;;;4876035;29;20056;-93
2023/04/21 13:10:16;;;;;;;8.70;4.18;;;;;;;;;;4875706;29;20076;-88
2023/04/21 13:12:42;;;;;;;9.05;4.35;;;;;;;;;;4891389;29;20037;-91
2023/04/21 13:15:09;;;;;;;7.88;3.92;;;;;;;;;;4891169;29;20115;-92
2023/04/21 13:17:38;;;;;;;10.93;4.35;;;;;;;;;;4876138;29;20148;-91
2023/04/21 13:20:05;;;;;;;7.10;4.00;;;;;;;;;;4875979;29;20033;-92
2023/04/21 13:22:34;;;;;;;10.07;3.70;;;;;;;;;;4879227;29;20049;-87
2023/04/21 13:25:00;;;;;;;9.88;3.90;;;;;;;;;;4893207;29;20133;-94
2023/04/21 13:27:26;;;;;;;10.55;3.60;;;;;;;;;;4884655;29;20517;-92
2023/04/21 13:29:53;;;;;;;8.23;3.65;;;;;;;;;;4894777;29;20029;-91
2023/04/21 13:32:20;;;;;;;5.53;3.47;;;;;;;;;;4894804;29;20451;-91
2023/04/21 13:34:49;;;;;;;6.55;3.70;;;;;;;;;;4895002;29;20043;-94
2023/04/21 13:37:15;;;;;;;9.75;3.92;;;;;;;;;;4880120;29;20040;-94
2023/04/21 13:39:42;;;;;;;11.35;4.07;;;;;;;;;;4886526;29;20029;-91
2023/04/21 13:42:08;;;;;;;8.05;4.05;;;;;;;;;;4881326;29;20033;-93
2023/04/21 13:44:34;;;;;;;5.75;3.38;;;;;;;;;;4885006;29;20486;-95
2023/04/21 13:47:00;;;;;;;6.82;3.83;;;;;;;;;;4881022;29;20067;-92
2023/04/21 13:49:46;;;;;;;6.97;4.10;;;;;;;;;;4881463;29;20176;-94
2023/04/21 13:52:12;;;;;;;9.02;3.97;;;;;;;;;;4890008;29;20089;-92
2023/04/21 13:54:38;;;;;;;8.60;4.15;;;;;;;;;;4881200;29;20124;-92
2023/04/21 13:57:04;;;;;;;8.57;4.03;;;;;;;;;;4881347;29;20052;-92
2023/04/21 13:59:30;;;;;;;10.13;3.75;;;;;;;;;;4880811;29;20089;-93
2023/04/21 14:02:24;;;;;;;6.20;3.92;;;;;;;;;;4881129;29;20037;-93
2023/04/21 14:07:57;;;;;;;;;;;;;;;;;;4890389;29;20080;-90
2023/04/21 14:10:23;;;;;;;8.70;4.20;;;;;;;;;;4864906;29;19920;-92
2023/04/21 14:12:50;;;;;;;7.03;3.83;;;;;;;;;;4847132;29;20036;-92
2023/04/21 14:15:16;;;;;;;8.02;4.65;;;;;;;;;;4846799;29;20040;-92
2023/04/21 14:17:42;;;;;;;8.50;4.30;;;;;;;;;;4846337;29;20058;-92
2023/04/21 14:20:08;;;;;;;7.28;4.10;;;;;;;;;;4862953;29;20112;-94
2023/04/21 14:22:38;;;;;;;10.52;4.10;;;;;;;;;;4863143;29;20029;-95
2023/04/21 14:25:21;;;;;;;8.60;4.15;;;;;;;;;;4863534;29;20021;-92
2023/04/21 14:27:48;;;;;;;10.75;4.22;;;;;;;;;;4863295;29;20475;-94
2023/04/21 14:31:04;;;;;;;14.48;6.25;;;;;;;;;;4864454;29;20029;-95
2023/04/21 14:33:34;;;;;;;11.07;3.78;;;;;;;;;;4775113;30;20035;-93
2023/04/21 14:36:00;;;;;;;8.70;4.70;;;;;;;;;;4774783;30;20046;-92
2023/04/21 14:49:56;;;;;;;10.30;4.03;;;;;;;;;;4914345;23;20060;-93
2023/04/21 14:52:40;;;;;;;9.93;3.90;;;;;;;;;;4885774;29;20029;-94
2023/04/21 14:55:35;;;;;;;8.23;4.10;;;;;;;;;;4884094;29;20063;-93
2023/04/21 14:58:24;;;;;;;11.15;4.10;;;;;;;;;;4881963;29;20056;-93
2023/04/21 15:00:57;;;;;;;8.52;4.15;;;;;;;;;;4880104;29;20032;-95
2023/04/21 15:03:25;;;;;;;6.85;4.10;;;;;;;;;;4897866;23;20046;-95
2023/04/21 15:05:54;;;;;;;9.57;4.25;;;;;;;;;;4877494;29;20038;-93
2023/04/21 15:11:27;;;;;;;;;;;;;;;;;;4865286;29;20053;-95
2023/04/21 15:14:03;;;;;;;7.45;3.80;;;;;;;;;;4871800;29;19928;-90
2023/04/21 15:16:29;;;;;;;8.32;4.05;;;;;;;;;;4873942;29;20104;-89
2023/04/21 15:18:55;;;;;;;13.13;4.10;;;;;;;;;;4874814;29;20128;-92
2023/04/21 15:21:22;;;;;;;10.30;4.22;;;;;;;;;;4875146;29;20029;-91
2023/04/21 15:23:48;;;;;;;10.20;4.20;;;;;;;;;;4874467;29;20483;-89
2023/04/21 15:26:14;;;;;;;23.75;4.38;;;;;;;;;;4874380;29;20041;-88
2023/04/21 15:28:40;;;;;;;10.70;4.30;;;;;;;;;;4874827;29;20383;-90
2023/04/21 15:31:10;;;;;;;10.88;4.40;;;;;;;;;;4860733;29;20435;-93
2023/04/21 15:33:54;;;;;;;6.88;3.88;;;;;;;;;;4874438;29;20033;-92
2023/04/21 15:36:20;;;;;;;7.22;4.10;;;;;;;;;;4874178;29;20093;-88
2023/04/21 15:38:47;;;;;;;10.27;4.63;;;;;;;;;;4878385;29;20037;-90
2023/04/21 15:41:30;;;;;;;8.52;4.57;;;;;;;;;;4877138;29;20049;-89
2023/04/21 15:43:59;;;;;;;9.63;4.32;;;;;;;;;;4850137;29;20089;-90
2023/04/21 15:46:25;;;;;;;14.25;4.55;;;;;;;;;;4851553;29;20534;-86
2023/04/21 15:48:51;;;;;;;8.63;3.83;;;;;;;;;;4855321;29;20475;-87
2023/04/21 15:51:18;;;;;;;11.13;4.18;;;;;;;;;;4837005;29;20068;-88
2023/04/21 15:53:47;;;;;;;10.50;4.50;;;;;;;;;;4836874;29;20056;-90
2023/04/21 15:56:19;;;;;;;10.18;4.43;;;;;;;;;;4836701;29;20483;-94
2023/04/21 15:58:45;;;;;;;7.65;3.85;;;;;;;;;;4852238;29;20046;-87
2023/04/21 16:01:17;;;;;;;12.65;4.72;;;;;;;;;;4839085;29;20042;-88
2023/04/21 16:03:47;;;;;;;8.35;4.20;;;;;;;;;;4842404;29;20049;-92
2023/04/21 16:06:13;;;;;;;11.35;4.18;;;;;;;;;;4849290;29;20115;-93
2023/04/21 16:08:40;;;;;;;9.27;3.88;;;;;;;;;;4845594;29;20064;-88
2023/04/21 16:11:07;;;;;;;14.95;4.72;;;;;;;;;;4849749;29;20040;-95
2023/04/21 16:13:34;;;;;;;8.38;3.58;;;;;;;;;;4842712;29;20042;-93
2023/04/21 16:16:00;;;;;;;10.80;3.97;;;;;;;;;;4845929;29;20075;-95
2023/04/21 16:18:26;;;;;;;9.65;4.30;;;;;;;;;;4860350;29;20140;-95
2023/04/21 16:20:52;;;;;;;8.77;4.82;;;;;;;;;;4843239;29;20225;-94
2023/04/21 16:23:19;;;;;;;11.20;4.78;;;;;;;;;;4842965;29;20034;-93
2023/04/21 16:25:45;;;;;;;9.63;4.53;;;;;;;;;;4859680;29;20053;-93
2023/04/21 16:28:11;;;;;;;8.82;4.32;;;;;;;;;;4866953;29;20033;-92
2023/04/21 16:30:56;;;;;;;10.07;4.60;;;;;;;;;;4861111;29;20061;-93
2023/04/21 16:33:22;;;;;;;10.07;4.22;;;;;;;;;;4845493;29;20038;-93
2023/04/21 16:35:50;;;;;;;8.77;4.35;;;;;;;;;;4845465;29;20542;-91
2023/04/21 16:38:16;;;;;;;8.90;4.45;;;;;;;;;;4866142;29;20025;-92
2023/04/21 16:40:43;;;;;;;8.32;4.15;;;;;;;;;;4866918;29;20124;-92
2023/04/21 16:43:09;;;;;;;11.73;5.03;;;;;;;;;;4856700;29;20022;-92
2023/04/21 16:45:35;;;;;;;11.35;5.10;;;;;;;;;;4855956;29;20037;-92
2023/04/21 16:48:01;;;;;;;9.73;4.53;;;;;;;;;;4863635;29;20037;-94
2023/04/21 16:50:29;;;;;;;9.45;4.05;;;;;;;;;;4876058;29;20041;-92